sensor_id;sensor_type;location;lat;lon;timestamp;temperature;humidity
38265;DHT22;24062;47.480;8.768;2023-06-19T00:02:26;28.30;48.10
38265;DHT22;24062;47.480;8.768;2023-06-19T00:04:53;28.20;48.10
38265;DHT22;24062;47.480;8.768;2023-06-19T00:07:21;28.10;48.30
38265;DHT22;24062;47.480;8.768;2023-06-19T00:09:48;28.00;48.30
38265;DHT22;24062;47.480;8.768;2023-06-19T00:12:15;28.00;48.30
38265;DHT22;24062;47.480;8.768;2023-06-19T00:14:42;28.00;48.40
38265;DHT22;24062;47.480;8.768;2023-06-19T00:17:09;28.00;48.40
38265;DHT22;24062;47.480;8.768;2023-06-19T00:19:36;28.00;48.40
38265;DHT22;24062;47.480;8.768;2023-06-19T00:22:03;28.00;48.40
38265;DHT22;24062;47.480;8.768;2023-06-19T00:24:32;28.00;48.40
38265;DHT22;24062;47.480;8.768;2023-06-19T00:26:59;28.00;48.30
38265;DHT22;24062;47.480;8.768;2023-06-19T00:29:28;28.00;48.40
38265;DHT22;24062;47.480;8.768;2023-06-19T00:31:55;27.90;48.30
38265;DHT22;24062;47.480;8.768;2023-06-19T00:34:22;28.00;48.40
38265;DHT22;24062;47.480;8.768;2023-06-19T00:36:49;27.90;48.40
38265;DHT22;24062;47.480;8.768;2023-06-19T00:39:16;27.90;48.40
38265;DHT22;24062;47.480;8.768;2023-06-19T00:41:45;27.90;48.30
38265;DHT22;24062;47.480;8.768;2023-06-19T00:44:13;27.90;48.30
38265;DHT22;24062;47.480;8.768;2023-06-19T00:46:41;27.90;48.30
38265;DHT22;24062;47.480;8.768;2023-06-19T00:49:08;28.00;48.40
38265;DHT22;24062;47.480;8.768;2023-06-19T00:51:35;28.00;48.40
38265;DHT22;24062;47.480;8.768;2023-06-19T00:54:02;27.90;48.40
38265;DHT22;24062;47.480;8.768;2023-06-19T00:56:30;27.90;48.40
38265;DHT22;24062;47.480;8.768;2023-06-19T00:58:58;27.90;48.40
38265;DHT22;24062;47.480;8.768;2023-06-19T01:01:26;28.00;48.40
38265;DHT22;24062;47.480;8.768;2023-06-19T01:03:53;27.90;48.30
38265;DHT22;24062;47.480;8.768;2023-06-19T01:06:22;27.90;48.30
38265;DHT22;24062;47.480;8.768;2023-06-19T01:08:55;27.90;48.30
38265;DHT22;24062;47.480;8.768;2023-06-19T01:11:33;27.90;48.30
38265;DHT22;24062;47.480;8.768;2023-06-19T01:14:08;27.80;48.30
38265;DHT22;24062;47.480;8.768;2023-06-19T01:16:36;27.80;48.40
38265;DHT22;24062;47.480;8.768;2023-06-19T01:19:04;27.80;48.30
38265;DHT22;24062;47.480;8.768;2023-06-19T01:21:33;27.80;48.40
38265;DHT22;24062;47.480;8.768;2023-06-19T01:24:01;27.80;48.40
38265;DHT22;24062;47.480;8.768;2023-06-19T01:26:28;27.80;48.50
38265;DHT22;24062;47.480;8.768;2023-06-19T01:28:56;27.80;48.40
38265;DHT22;24062;47.480;8.768;2023-06-19T01:31:35;27.80;48.40
38265;DHT22;24062;47.480;8.768;2023-06-19T01:34:05;27.80;48.40
38265;DHT22;24062;47.480;8.768;2023-06-19T01:36:34;27.80;48.40
38265;DHT22;24062;47.480;8.768;2023-06-19T01:39:03;27.70;48.50
38265;DHT22;24062;47.480;8.768;2023-06-19T01:41:32;27.70;48.50
38265;DHT22;24062;47.480;8.768;2023-06-19T01:43:59;27.60;48.50
38265;DHT22;24062;47.480;8.768;2023-06-19T01:46:27;27.60;48.60
38265;DHT22;24062;47.480;8.768;2023-06-19T01:48:54;27.60;48.70
38265;DHT22;24062;47.480;8.768;2023-06-19T01:51:21;27.50;48.70
38265;DHT22;24062;47.480;8.768;2023-06-19T01:53:48;27.40;48.80
38265;DHT22;24062;47.480;8.768;2023-06-19T01:56:16;27.40;48.80
38265;DHT22;24062;47.480;8.768;2023-06-19T01:58:43;27.40;48.90
38265;DHT22;24062;47.480;8.768;2023-06-19T02:01:10;27.40;48.90
38265;DHT22;24062;47.480;8.768;2023-06-19T02:03:37;27.40;49.00
38265;DHT22;24062;47.480;8.768;2023-06-19T02:06:04;27.40;49.10
38265;DHT22;24062;47.480;8.768;2023-06-19T02:08:31;27.30;49.00
38265;DHT22;24062;47.480;8.768;2023-06-19T02:10:58;27.40;49.00
38265;DHT22;24062;47.480;8.768;2023-06-19T02:13:26;27.40;49.00
38265;DHT22;24062;47.480;8.768;2023-06-19T02:15:53;27.40;48.90
38265;DHT22;24062;47.480;8.768;2023-06-19T02:18:20;27.40;48.80
38265;DHT22;24062;47.480;8.768;2023-06-19T02:20:47;27.50;48.80
38265;DHT22;24062;47.480;8.768;2023-06-19T02:23:14;27.50;48.70
38265;DHT22;24062;47.480;8.768;2023-06-19T02:25:41;27.50;48.70
38265;DHT22;24062;47.480;8.768;2023-06-19T02:28:08;27.50;48.80
38265;DHT22;24062;47.480;8.768;2023-06-19T02:30:36;27.50;48.90
38265;DHT22;24062;47.480;8.768;2023-06-19T02:33:03;27.60;49.10
38265;DHT22;24062;47.480;8.768;2023-06-19T02:35:30;27.50;49.20
38265;DHT22;24062;47.480;8.768;2023-06-19T02:37:57;27.50;49.10
38265;DHT22;24062;47.480;8.768;2023-06-19T02:40:24;27.60;49.10
38265;DHT22;24062;47.480;8.768;2023-06-19T02:42:51;27.50;49.20
38265;DHT22;24062;47.480;8.768;2023-06-19T02:45:18;27.50;49.40
38265;DHT22;24062;47.480;8.768;2023-06-19T02:47:46;27.60;49.30
38265;DHT22;24062;47.480;8.768;2023-06-19T02:50:13;27.50;49.20
38265;DHT22;24062;47.480;8.768;2023-06-19T02:52:40;27.50;49.40
38265;DHT22;24062;47.480;8.768;2023-06-19T02:55:08;27.50;49.30
38265;DHT22;24062;47.480;8.768;2023-06-19T02:57:35;27.60;49.30
38265;DHT22;24062;47.480;8.768;2023-06-19T03:00:02;27.60;49.20
38265;DHT22;24062;47.480;8.768;2023-06-19T03:02:31;27.50;49.10
38265;DHT22;24062;47.480;8.768;2023-06-19T03:04:59;27.50;49.10
38265;DHT22;24062;47.480;8.768;2023-06-19T03:07:27;27.50;49.10
38265;DHT22;24062;47.480;8.768;2023-06-19T03:09:54;27.60;49.10
38265;DHT22;24062;47.480;8.768;2023-06-19T03:12:21;27.60;49.90
38265;DHT22;24062;47.480;8.768;2023-06-19T03:14:48;27.50;49.70
38265;DHT22;24062;47.480;8.768;2023-06-19T03:17:15;27.50;49.40
38265;DHT22;24062;47.480;8.768;2023-06-19T03:19:41;27.50;49.40
38265;DHT22;24062;47.480;8.768;2023-06-19T03:22:10;27.50;49.40
38265;DHT22;24062;47.480;8.768;2023-06-19T03:24:37;27.50;49.40
38265;DHT22;24062;47.480;8.768;2023-06-19T03:27:04;27.50;49.40
38265;DHT22;24062;47.480;8.768;2023-06-19T03:29:31;27.50;49.60
38265;DHT22;24062;47.480;8.768;2023-06-19T03:31:58;27.50;50.00
38265;DHT22;24062;47.480;8.768;2023-06-19T03:34:25;27.40;51.30
38265;DHT22;24062;47.480;8.768;2023-06-19T03:36:52;27.40;51.30
38265;DHT22;24062;47.480;8.768;2023-06-19T03:39:20;27.30;50.70
38265;DHT22;24062;47.480;8.768;2023-06-19T03:41:47;27.30;50.60
38265;DHT22;24062;47.480;8.768;2023-06-19T03:44:14;27.30;51.10
38265;DHT22;24062;47.480;8.768;2023-06-19T03:46:41;27.30;52.10
38265;DHT22;24062;47.480;8.768;2023-06-19T03:49:08;27.30;51.60
38265;DHT22;24062;47.480;8.768;2023-06-19T03:51:36;27.20;51.20
38265;DHT22;24062;47.480;8.768;2023-06-19T03:54:03;27.20;51.20
38265;DHT22;24062;47.480;8.768;2023-06-19T03:56:31;27.20;51.60
38265;DHT22;24062;47.480;8.768;2023-06-19T03:58:58;27.20;51.00
38265;DHT22;24062;47.480;8.768;2023-06-19T04:01:25;27.30;50.80
38265;DHT22;24062;47.480;8.768;2023-06-19T04:03:52;27.30;50.90
38265;DHT22;24062;47.480;8.768;2023-06-19T04:06:19;27.30;51.10
38265;DHT22;24062;47.480;8.768;2023-06-19T04:08:46;27.20;50.90
38265;DHT22;24062;47.480;8.768;2023-06-19T04:11:13;27.20;51.20
38265;DHT22;24062;47.480;8.768;2023-06-19T04:13:41;27.20;51.20
38265;DHT22;24062;47.480;8.768;2023-06-19T04:16:08;27.20;51.10
38265;DHT22;24062;47.480;8.768;2023-06-19T04:18:35;27.20;51.00
38265;DHT22;24062;47.480;8.768;2023-06-19T04:21:02;27.20;50.90
38265;DHT22;24062;47.480;8.768;2023-06-19T04:23:29;27.20;51.00
38265;DHT22;24062;47.480;8.768;2023-06-19T04:25:55;27.20;51.00
38265;DHT22;24062;47.480;8.768;2023-06-19T04:28:22;27.20;51.20
38265;DHT22;24062;47.480;8.768;2023-06-19T04:30:51;27.20;51.10
38265;DHT22;24062;47.480;8.768;2023-06-19T04:33:25;27.20;50.90
38265;DHT22;24062;47.480;8.768;2023-06-19T04:35:52;27.20;50.90
38265;DHT22;24062;47.480;8.768;2023-06-19T04:38:19;27.20;51.90
38265;DHT22;24062;47.480;8.768;2023-06-19T04:40:49;27.20;51.30
38265;DHT22;24062;47.480;8.768;2023-06-19T04:43:16;27.10;51.20
38265;DHT22;24062;47.480;8.768;2023-06-19T04:45:43;27.10;51.10
38265;DHT22;24062;47.480;8.768;2023-06-19T04:48:12;27.10;51.10
38265;DHT22;24062;47.480;8.768;2023-06-19T04:50:39;27.10;51.00
38265;DHT22;24062;47.480;8.768;2023-06-19T04:53:06;27.10;51.50
38265;DHT22;24062;47.480;8.768;2023-06-19T04:55:32;27.20;51.20
38265;DHT22;24062;47.480;8.768;2023-06-19T04:57:59;27.10;51.70
38265;DHT22;24062;47.480;8.768;2023-06-19T05:00:26;27.10;51.40
38265;DHT22;24062;47.480;8.768;2023-06-19T05:02:53;27.10;51.30
38265;DHT22;24062;47.480;8.768;2023-06-19T05:05:26;27.10;51.70
38265;DHT22;24062;47.480;8.768;2023-06-19T05:07:53;27.10;51.90
38265;DHT22;24062;47.480;8.768;2023-06-19T05:10:20;27.10;51.70
38265;DHT22;24062;47.480;8.768;2023-06-19T05:12:47;27.10;51.80
38265;DHT22;24062;47.480;8.768;2023-06-19T05:15:14;27.10;51.70
38265;DHT22;24062;47.480;8.768;2023-06-19T05:17:41;27.10;51.70
38265;DHT22;24062;47.480;8.768;2023-06-19T05:20:09;27.10;51.90
38265;DHT22;24062;47.480;8.768;2023-06-19T05:22:38;27.00;51.70
38265;DHT22;24062;47.480;8.768;2023-06-19T05:25:06;27.10;52.40
38265;DHT22;24062;47.480;8.768;2023-06-19T05:27:33;27.10;51.80
38265;DHT22;24062;47.480;8.768;2023-06-19T05:30:00;27.10;51.80
38265;DHT22;24062;47.480;8.768;2023-06-19T05:32:27;27.10;51.60
38265;DHT22;24062;47.480;8.768;2023-06-19T05:34:54;27.10;52.00
38265;DHT22;24062;47.480;8.768;2023-06-19T05:37:21;27.10;51.60
38265;DHT22;24062;47.480;8.768;2023-06-19T05:39:50;27.10;51.70
38265;DHT22;24062;47.480;8.768;2023-06-19T05:42:17;27.10;51.70
38265;DHT22;24062;47.480;8.768;2023-06-19T05:44:43;27.10;51.70
38265;DHT22;24062;47.480;8.768;2023-06-19T05:47:10;27.00;51.90
38265;DHT22;24062;47.480;8.768;2023-06-19T05:49:38;27.00;52.10
38265;DHT22;24062;47.480;8.768;2023-06-19T05:52:07;27.00;52.00
38265;DHT22;24062;47.480;8.768;2023-06-19T05:54:34;27.00;52.00
38265;DHT22;24062;47.480;8.768;2023-06-19T05:57:03;26.90;52.00
38265;DHT22;24062;47.480;8.768;2023-06-19T05:59:30;27.00;52.20
38265;DHT22;24062;47.480;8.768;2023-06-19T06:01:57;27.00;52.30
38265;DHT22;24062;47.480;8.768;2023-06-19T06:04:24;26.90;52.30
38265;DHT22;24062;47.480;8.768;2023-06-19T06:06:51;26.90;52.70
38265;DHT22;24062;47.480;8.768;2023-06-19T06:09:18;26.90;52.60
38265;DHT22;24062;47.480;8.768;2023-06-19T06:11:45;26.90;52.60
38265;DHT22;24062;47.480;8.768;2023-06-19T06:14:13;26.90;52.40
38265;DHT22;24062;47.480;8.768;2023-06-19T06:16:40;26.90;52.40
38265;DHT22;24062;47.480;8.768;2023-06-19T06:19:07;26.90;52.80
38265;DHT22;24062;47.480;8.768;2023-06-19T06:21:34;26.90;52.90
38265;DHT22;24062;47.480;8.768;2023-06-19T06:24:01;26.90;53.20
38265;DHT22;24062;47.480;8.768;2023-06-19T06:26:28;26.80;53.20
38265;DHT22;24062;47.480;8.768;2023-06-19T06:28:55;26.80;53.30
38265;DHT22;24062;47.480;8.768;2023-06-19T06:31:23;26.70;53.40
38265;DHT22;24062;47.480;8.768;2023-06-19T06:33:50;26.70;53.20
38265;DHT22;24062;47.480;8.768;2023-06-19T06:36:18;26.80;53.20
38265;DHT22;24062;47.480;8.768;2023-06-19T06:38:44;26.80;53.10
38265;DHT22;24062;47.480;8.768;2023-06-19T06:41:11;26.80;53.10
38265;DHT22;24062;47.480;8.768;2023-06-19T06:43:40;26.80;52.80
38265;DHT22;24062;47.480;8.768;2023-06-19T06:46:08;26.90;53.10
38265;DHT22;24062;47.480;8.768;2023-06-19T06:48:37;26.90;53.10
38265;DHT22;24062;47.480;8.768;2023-06-19T06:51:05;26.90;53.30
38265;DHT22;24062;47.480;8.768;2023-06-19T06:53:32;26.90;53.20
38265;DHT22;24062;47.480;8.768;2023-06-19T06:55:59;27.00;53.00
38265;DHT22;24062;47.480;8.768;2023-06-19T06:58:26;27.00;53.10
38265;DHT22;24062;47.480;8.768;2023-06-19T07:00:53;27.10;52.60
38265;DHT22;24062;47.480;8.768;2023-06-19T07:03:20;27.20;52.50
38265;DHT22;24062;47.480;8.768;2023-06-19T07:05:49;27.20;52.60
38265;DHT22;24062;47.480;8.768;2023-06-19T07:08:16;27.30;52.20
38265;DHT22;24062;47.480;8.768;2023-06-19T07:10:43;27.40;52.10
38265;DHT22;24062;47.480;8.768;2023-06-19T07:13:10;27.40;52.60
38265;DHT22;24062;47.480;8.768;2023-06-19T07:15:37;27.60;52.30
38265;DHT22;24062;47.480;8.768;2023-06-19T07:18:04;27.60;52.00
38265;DHT22;24062;47.480;8.768;2023-06-19T07:20:31;27.60;51.80
38265;DHT22;24062;47.480;8.768;2023-06-19T07:22:59;27.70;51.50
38265;DHT22;24062;47.480;8.768;2023-06-19T07:25:26;27.90;51.20
38265;DHT22;24062;47.480;8.768;2023-06-19T07:27:53;28.10;51.00
38265;DHT22;24062;47.480;8.768;2023-06-19T07:30:20;28.30;50.90
38265;DHT22;24062;47.480;8.768;2023-06-19T07:32:47;28.30;50.70
38265;DHT22;24062;47.480;8.768;2023-06-19T07:35:14;28.40;50.70
38265;DHT22;24062;47.480;8.768;2023-06-19T07:37:41;28.50;50.60
38265;DHT22;24062;47.480;8.768;2023-06-19T07:40:11;28.50;50.70
38265;DHT22;24062;47.480;8.768;2023-06-19T07:42:38;28.50;51.30
38265;DHT22;24062;47.480;8.768;2023-06-19T07:45:06;28.40;50.90
38265;DHT22;24062;47.480;8.768;2023-06-19T07:47:33;28.50;50.80
38265;DHT22;24062;47.480;8.768;2023-06-19T07:50:00;28.50;50.60
38265;DHT22;24062;47.480;8.768;2023-06-19T07:52:27;28.50;50.80
38265;DHT22;24062;47.480;8.768;2023-06-19T07:54:55;28.50;51.10
38265;DHT22;24062;47.480;8.768;2023-06-19T07:57:25;28.60;51.50
38265;DHT22;24062;47.480;8.768;2023-06-19T07:59:53;28.60;51.20
38265;DHT22;24062;47.480;8.768;2023-06-19T08:02:20;28.70;51.00
38265;DHT22;24062;47.480;8.768;2023-06-19T08:04:47;28.70;50.70
38265;DHT22;24062;47.480;8.768;2023-06-19T08:07:14;28.70;50.40
38265;DHT22;24062;47.480;8.768;2023-06-19T08:09:41;28.70;50.30
38265;DHT22;24062;47.480;8.768;2023-06-19T08:12:08;28.80;50.80
38265;DHT22;24062;47.480;8.768;2023-06-19T08:14:36;28.90;50.20
38265;DHT22;24062;47.480;8.768;2023-06-19T08:17:04;28.90;50.10
38265;DHT22;24062;47.480;8.768;2023-06-19T08:19:31;28.90;50.00
38265;DHT22;24062;47.480;8.768;2023-06-19T08:21:58;29.00;50.00
38265;DHT22;24062;47.480;8.768;2023-06-19T08:24:25;28.90;50.80
38265;DHT22;24062;47.480;8.768;2023-06-19T08:26:52;29.00;50.30
38265;DHT22;24062;47.480;8.768;2023-06-19T08:29:19;29.00;50.00
38265;DHT22;24062;47.480;8.768;2023-06-19T08:31:48;29.00;50.30
38265;DHT22;24062;47.480;8.768;2023-06-19T08:34:15;29.10;50.20
38265;DHT22;24062;47.480;8.768;2023-06-19T08:36:41;29.10;50.10
38265;DHT22;24062;47.480;8.768;2023-06-19T08:39:08;29.20;50.00
38265;DHT22;24062;47.480;8.768;2023-06-19T08:41:37;29.30;50.10
38265;DHT22;24062;47.480;8.768;2023-06-19T08:44:04;29.40;50.10
38265;DHT22;24062;47.480;8.768;2023-06-19T08:46:31;29.40;50.00
38265;DHT22;24062;47.480;8.768;2023-06-19T08:48:59;29.50;49.80
38265;DHT22;24062;47.480;8.768;2023-06-19T08:51:27;29.50;50.30
38265;DHT22;24062;47.480;8.768;2023-06-19T08:54:01;29.50;50.60
38265;DHT22;24062;47.480;8.768;2023-06-19T08:56:29;29.50;50.70
38265;DHT22;24062;47.480;8.768;2023-06-19T08:59:08;29.50;50.90
38265;DHT22;24062;47.480;8.768;2023-06-19T09:01:35;29.60;50.90
38265;DHT22;24062;47.480;8.768;2023-06-19T09:04:10;29.60;50.60
38265;DHT22;24062;47.480;8.768;2023-06-19T09:06:46;29.60;50.30
38265;DHT22;24062;47.480;8.768;2023-06-19T09:09:14;29.60;50.30
38265;DHT22;24062;47.480;8.768;2023-06-19T09:11:41;29.60;50.20
38265;DHT22;24062;47.480;8.768;2023-06-19T09:14:10;29.60;50.60
38265;DHT22;24062;47.480;8.768;2023-06-19T09:16:39;29.60;50.60
38265;DHT22;24062;47.480;8.768;2023-06-19T09:19:06;29.60;50.20
38265;DHT22;24062;47.480;8.768;2023-06-19T09:21:36;29.70;50.00
38265;DHT22;24062;47.480;8.768;2023-06-19T09:24:06;29.70;50.10
38265;DHT22;24062;47.480;8.768;2023-06-19T09:26:33;29.80;50.10
38265;DHT22;24062;47.480;8.768;2023-06-19T09:29:10;29.80;50.00
38265;DHT22;24062;47.480;8.768;2023-06-19T09:31:37;29.80;49.80
38265;DHT22;24062;47.480;8.768;2023-06-19T09:34:05;29.90;50.10
38265;DHT22;24062;47.480;8.768;2023-06-19T09:36:35;29.90;50.30
38265;DHT22;24062;47.480;8.768;2023-06-19T09:39:02;30.00;50.70
38265;DHT22;24062;47.480;8.768;2023-06-19T09:41:30;30.00;49.70
38265;DHT22;24062;47.480;8.768;2023-06-19T09:43:58;29.90;49.70
38265;DHT22;24062;47.480;8.768;2023-06-19T09:46:29;29.90;50.20
38265;DHT22;24062;47.480;8.768;2023-06-19T09:49:00;29.90;49.90
38265;DHT22;24062;47.480;8.768;2023-06-19T09:51:31;29.90;50.40
38265;DHT22;24062;47.480;8.768;2023-06-19T09:54:02;29.90;50.40
38265;DHT22;24062;47.480;8.768;2023-06-19T09:56:30;30.00;50.10
38265;DHT22;24062;47.480;8.768;2023-06-19T09:58:57;30.00;50.20
38265;DHT22;24062;47.480;8.768;2023-06-19T10:01:27;30.00;50.60
38265;DHT22;24062;47.480;8.768;2023-06-19T10:04:06;30.00;50.00
38265;DHT22;24062;47.480;8.768;2023-06-19T10:06:41;30.10;50.20
38265;DHT22;24062;47.480;8.768;2023-06-19T10:09:10;30.10;50.20
38265;DHT22;24062;47.480;8.768;2023-06-19T10:11:48;30.00;49.90
38265;DHT22;24062;47.480;8.768;2023-06-19T10:14:17;30.10;50.30
38265;DHT22;24062;47.480;8.768;2023-06-19T10:16:45;30.00;50.70
38265;DHT22;24062;47.480;8.768;2023-06-19T10:19:14;30.10;50.40
38265;DHT22;24062;47.480;8.768;2023-06-19T10:21:45;30.10;50.20
38265;DHT22;24062;47.480;8.768;2023-06-19T10:24:18;30.00;50.10
38265;DHT22;24062;47.480;8.768;2023-06-19T10:26:56;30.10;50.30
38265;DHT22;24062;47.480;8.768;2023-06-19T10:29:24;30.10;50.30
38265;DHT22;24062;47.480;8.768;2023-06-19T10:31:53;30.10;50.20
38265;DHT22;24062;47.480;8.768;2023-06-19T10:34:22;30.10;50.10
38265;DHT22;24062;47.480;8.768;2023-06-19T10:36:59;30.10;51.00
38265;DHT22;24062;47.480;8.768;2023-06-19T10:39:27;30.20;50.30
38265;DHT22;24062;47.480;8.768;2023-06-19T10:41:54;30.20;50.20
38265;DHT22;24062;47.480;8.768;2023-06-19T10:44:23;30.20;50.10
38265;DHT22;24062;47.480;8.768;2023-06-19T10:46:53;30.20;50.10
38265;DHT22;24062;47.480;8.768;2023-06-19T10:49:21;30.20;50.30
38265;DHT22;24062;47.480;8.768;2023-06-19T10:51:48;30.20;50.10
38265;DHT22;24062;47.480;8.768;2023-06-19T10:54:16;30.20;50.10
38265;DHT22;24062;47.480;8.768;2023-06-19T10:56:44;30.20;50.10
38265;DHT22;24062;47.480;8.768;2023-06-19T10:59:14;30.20;50.00
38265;DHT22;24062;47.480;8.768;2023-06-19T11:01:42;30.30;50.10
38265;DHT22;24062;47.480;8.768;2023-06-19T11:04:10;30.30;50.00
38265;DHT22;24062;47.480;8.768;2023-06-19T11:06:38;30.40;50.10
38265;DHT22;24062;47.480;8.768;2023-06-19T11:09:06;30.40;50.00
38265;DHT22;24062;47.480;8.768;2023-06-19T11:11:37;30.40;49.80
38265;DHT22;24062;47.480;8.768;2023-06-19T11:14:07;30.50;49.70
38265;DHT22;24062;47.480;8.768;2023-06-19T11:16:34;30.40;49.60
38265;DHT22;24062;47.480;8.768;2023-06-19T11:19:01;30.50;49.60
38265;DHT22;24062;47.480;8.768;2023-06-19T11:21:32;30.50;49.60
38265;DHT22;24062;47.480;8.768;2023-06-19T11:24:04;30.50;49.70
38265;DHT22;24062;47.480;8.768;2023-06-19T11:26:35;30.50;49.60
38265;DHT22;24062;47.480;8.768;2023-06-19T11:29:02;30.50;49.50
38265;DHT22;24062;47.480;8.768;2023-06-19T11:31:40;30.60;49.60
38265;DHT22;24062;47.480;8.768;2023-06-19T11:34:07;30.60;49.70
38265;DHT22;24062;47.480;8.768;2023-06-19T11:36:37;30.70;49.60
38265;DHT22;24062;47.480;8.768;2023-06-19T11:39:04;30.70;49.50
38265;DHT22;24062;47.480;8.768;2023-06-19T11:41:35;30.70;49.30
38265;DHT22;24062;47.480;8.768;2023-06-19T11:44:04;30.70;49.50
38265;DHT22;24062;47.480;8.768;2023-06-19T11:46:32;30.70;49.60
38265;DHT22;24062;47.480;8.768;2023-06-19T11:49:11;30.80;49.70
38265;DHT22;24062;47.480;8.768;2023-06-19T11:51:39;30.90;49.70
38265;DHT22;24062;47.480;8.768;2023-06-19T11:54:07;30.80;49.60
38265;DHT22;24062;47.480;8.768;2023-06-19T11:56:35;30.90;49.60
38265;DHT22;24062;47.480;8.768;2023-06-19T11:59:02;30.90;49.60
38265;DHT22;24062;47.480;8.768;2023-06-19T12:01:30;30.90;49.40
38265;DHT22;24062;47.480;8.768;2023-06-19T12:03:58;30.90;49.30
38265;DHT22;24062;47.480;8.768;2023-06-19T12:06:26;31.00;49.60
38265;DHT22;24062;47.480;8.768;2023-06-19T12:08:53;31.00;49.30
38265;DHT22;24062;47.480;8.768;2023-06-19T12:11:20;31.00;49.40
38265;DHT22;24062;47.480;8.768;2023-06-19T12:13:48;31.00;49.40
38265;DHT22;24062;47.480;8.768;2023-06-19T12:16:15;31.10;49.20
38265;DHT22;24062;47.480;8.768;2023-06-19T12:18:42;31.10;49.10
38265;DHT22;24062;47.480;8.768;2023-06-19T12:21:09;31.10;49.00
38265;DHT22;24062;47.480;8.768;2023-06-19T12:23:37;31.20;49.10
38265;DHT22;24062;47.480;8.768;2023-06-19T12:26:04;31.20;48.90
38265;DHT22;24062;47.480;8.768;2023-06-19T12:28:31;31.30;48.80
38265;DHT22;24062;47.480;8.768;2023-06-19T12:30:58;31.30;48.50
38265;DHT22;24062;47.480;8.768;2023-06-19T12:33:26;31.30;48.40
38265;DHT22;24062;47.480;8.768;2023-06-19T12:35:58;31.40;48.30
38265;DHT22;24062;47.480;8.768;2023-06-19T12:38:25;31.30;48.20
38265;DHT22;24062;47.480;8.768;2023-06-19T12:40:54;31.40;48.20
38265;DHT22;24062;47.480;8.768;2023-06-19T12:43:21;31.40;48.10
38265;DHT22;24062;47.480;8.768;2023-06-19T12:45:48;31.40;48.10
38265;DHT22;24062;47.480;8.768;2023-06-19T12:48:15;31.30;47.90
38265;DHT22;24062;47.480;8.768;2023-06-19T12:50:42;31.40;48.10
38265;DHT22;24062;47.480;8.768;2023-06-19T12:53:09;31.40;48.10
38265;DHT22;24062;47.480;8.768;2023-06-19T12:55:37;31.30;48.00
38265;DHT22;24062;47.480;8.768;2023-06-19T12:58:05;31.40;48.10
38265;DHT22;24062;47.480;8.768;2023-06-19T13:00:32;31.40;48.00
38265;DHT22;24062;47.480;8.768;2023-06-19T13:02:59;31.50;47.60
38265;DHT22;24062;47.480;8.768;2023-06-19T13:05:26;31.60;47.50
38265;DHT22;24062;47.480;8.768;2023-06-19T13:07:53;31.60;47.70
38265;DHT22;24062;47.480;8.768;2023-06-19T13:10:20;31.60;47.70
38265;DHT22;24062;47.480;8.768;2023-06-19T13:12:47;31.60;47.50
38265;DHT22;24062;47.480;8.768;2023-06-19T13:15:15;31.70;47.40
38265;DHT22;24062;47.480;8.768;2023-06-19T13:17:42;31.70;47.20
38265;DHT22;24062;47.480;8.768;2023-06-19T13:20:10;31.70;47.20
38265;DHT22;24062;47.480;8.768;2023-06-19T13:22:37;31.80;47.30
38265;DHT22;24062;47.480;8.768;2023-06-19T13:25:04;31.80;47.30
38265;DHT22;24062;47.480;8.768;2023-06-19T13:27:31;31.80;47.10
38265;DHT22;24062;47.480;8.768;2023-06-19T13:30:00;31.90;46.90
38265;DHT22;24062;47.480;8.768;2023-06-19T13:32:29;31.90;46.90
38265;DHT22;24062;47.480;8.768;2023-06-19T13:34:56;31.90;46.90
38265;DHT22;24062;47.480;8.768;2023-06-19T13:37:23;31.90;47.00
38265;DHT22;24062;47.480;8.768;2023-06-19T13:39:50;31.90;46.80
38265;DHT22;24062;47.480;8.768;2023-06-19T13:42:17;32.00;46.70
38265;DHT22;24062;47.480;8.768;2023-06-19T13:44:44;32.00;46.60
38265;DHT22;24062;47.480;8.768;2023-06-19T13:47:11;32.00;46.60
38265;DHT22;24062;47.480;8.768;2023-06-19T13:49:39;32.00;46.40
38265;DHT22;24062;47.480;8.768;2023-06-19T13:52:07;31.90;46.30
38265;DHT22;24062;47.480;8.768;2023-06-19T13:54:34;32.00;46.50
38265;DHT22;24062;47.480;8.768;2023-06-19T13:57:01;31.90;46.60
38265;DHT22;24062;47.480;8.768;2023-06-19T13:59:28;31.90;46.60
38265;DHT22;24062;47.480;8.768;2023-06-19T14:01:54;31.90;46.70
38265;DHT22;24062;47.480;8.768;2023-06-19T14:04:21;31.90;47.00
38265;DHT22;24062;47.480;8.768;2023-06-19T14:06:50;31.90;46.60
38265;DHT22;24062;47.480;8.768;2023-06-19T14:09:17;31.90;46.60
38265;DHT22;24062;47.480;8.768;2023-06-19T14:11:43;32.00;46.60
38265;DHT22;24062;47.480;8.768;2023-06-19T14:14:10;32.00;46.60
38265;DHT22;24062;47.480;8.768;2023-06-19T14:16:37;32.00;46.60
38265;DHT22;24062;47.480;8.768;2023-06-19T14:19:04;31.90;46.30
38265;DHT22;24062;47.480;8.768;2023-06-19T14:21:31;31.90;46.50
38265;DHT22;24062;47.480;8.768;2023-06-19T14:23:59;31.90;46.60
38265;DHT22;24062;47.480;8.768;2023-06-19T14:26:26;31.90;46.50
38265;DHT22;24062;47.480;8.768;2023-06-19T14:28:54;31.90;46.60
38265;DHT22;24062;47.480;8.768;2023-06-19T14:31:23;31.90;46.50
38265;DHT22;24062;47.480;8.768;2023-06-19T14:33:49;31.90;46.60
38265;DHT22;24062;47.480;8.768;2023-06-19T14:36:16;31.90;46.60
38265;DHT22;24062;47.480;8.768;2023-06-19T14:38:43;31.80;46.70
38265;DHT22;24062;47.480;8.768;2023-06-19T14:41:12;31.80;46.70
38265;DHT22;24062;47.480;8.768;2023-06-19T14:43:39;31.80;46.70
38265;DHT22;24062;47.480;8.768;2023-06-19T14:46:06;31.80;46.80
38265;DHT22;24062;47.480;8.768;2023-06-19T14:48:32;31.80;46.80
38265;DHT22;24062;47.480;8.768;2023-06-19T14:51:00;31.80;46.80
38265;DHT22;24062;47.480;8.768;2023-06-19T14:53:27;31.90;46.90
38265;DHT22;24062;47.480;8.768;2023-06-19T14:55:54;31.80;46.80
38265;DHT22;24062;47.480;8.768;2023-06-19T14:58:22;31.90;46.90
38265;DHT22;24062;47.480;8.768;2023-06-19T15:00:52;31.90;46.90
38265;DHT22;24062;47.480;8.768;2023-06-19T15:03:19;31.90;46.90
38265;DHT22;24062;47.480;8.768;2023-06-19T15:05:46;31.90;46.90
38265;DHT22;24062;47.480;8.768;2023-06-19T15:08:13;31.80;46.80
38265;DHT22;24062;47.480;8.768;2023-06-19T15:10:40;31.90;46.90
38265;DHT22;24062;47.480;8.768;2023-06-19T15:13:07;31.80;46.90
38265;DHT22;24062;47.480;8.768;2023-06-19T15:15:35;31.90;47.00
38265;DHT22;24062;47.480;8.768;2023-06-19T15:18:02;31.90;47.00
38265;DHT22;24062;47.480;8.768;2023-06-19T15:20:29;31.90;47.00
38265;DHT22;24062;47.480;8.768;2023-06-19T15:22:56;32.00;46.90
38265;DHT22;24062;47.480;8.768;2023-06-19T15:25:23;32.00;46.90
38265;DHT22;24062;47.480;8.768;2023-06-19T15:27:50;32.00;46.90
38265;DHT22;24062;47.480;8.768;2023-06-19T15:30:17;32.10;47.00
38265;DHT22;24062;47.480;8.768;2023-06-19T15:32:45;32.20;46.80
38265;DHT22;24062;47.480;8.768;2023-06-19T15:35:12;32.30;46.80